sensor_id;sensor_type;location;lat;lon;timestamp;temperature;humidity
22364;DHT22;11349;53.412;-1.328;2023-03-14T00:01:47;6.00;99.90
22364;DHT22;11349;53.412;-1.328;2023-03-14T00:04:14;6.00;99.90
22364;DHT22;11349;53.412;-1.328;2023-03-14T00:06:40;6.00;99.90
22364;DHT22;11349;53.412;-1.328;2023-03-14T00:09:06;6.00;99.90
22364;DHT22;11349;53.412;-1.328;2023-03-14T00:11:32;6.00;99.90
22364;DHT22;11349;53.412;-1.328;2023-03-14T00:13:58;6.00;99.90
22364;DHT22;11349;53.412;-1.328;2023-03-14T00:16:25;6.00;99.90
22364;DHT22;11349;53.412;-1.328;2023-03-14T00:18:51;6.00;99.90
22364;DHT22;11349;53.412;-1.328;2023-03-14T00:21:17;6.00;99.90
22364;DHT22;11349;53.412;-1.328;2023-03-14T00:23:43;5.90;99.90
22364;DHT22;11349;53.412;-1.328;2023-03-14T00:26:11;5.90;99.90
22364;DHT22;11349;53.412;-1.328;2023-03-14T00:28:38;5.90;99.90
22364;DHT22;11349;53.412;-1.328;2023-03-14T00:31:09;5.90;99.90
22364;DHT22;11349;53.412;-1.328;2023-03-14T00:33:35;5.90;99.90
22364;DHT22;11349;53.412;-1.328;2023-03-14T00:36:05;5.90;99.90
22364;DHT22;11349;53.412;-1.328;2023-03-14T00:38:32;5.90;99.90
22364;DHT22;11349;53.412;-1.328;2023-03-14T00:40:58;5.90;99.90
22364;DHT22;11349;53.412;-1.328;2023-03-14T00:43:24;5.90;99.90
22364;DHT22;11349;53.412;-1.328;2023-03-14T00:45:51;5.90;99.90
22364;DHT22;11349;53.412;-1.328;2023-03-14T00:48:18;5.90;99.90
22364;DHT22;11349;53.412;-1.328;2023-03-14T00:50:45;5.80;99.90
22364;DHT22;11349;53.412;-1.328;2023-03-14T00:53:11;5.80;99.90
22364;DHT22;11349;53.412;-1.328;2023-03-14T00:55:41;5.90;99.90
22364;DHT22;11349;53.412;-1.328;2023-03-14T00:58:08;5.90;99.90
22364;DHT22;11349;53.412;-1.328;2023-03-14T01:00:35;5.90;99.90
22364;DHT22;11349;53.412;-1.328;2023-03-14T01:03:04;5.90;99.90
22364;DHT22;11349;53.412;-1.328;2023-03-14T01:05:30;5.80;99.90
22364;DHT22;11349;53.412;-1.328;2023-03-14T01:07:58;5.80;99.90
22364;DHT22;11349;53.412;-1.328;2023-03-14T01:10:24;5.70;99.90
22364;DHT22;11349;53.412;-1.328;2023-03-14T01:12:50;5.70;99.90
22364;DHT22;11349;53.412;-1.328;2023-03-14T01:15:16;5.60;99.90
22364;DHT22;11349;53.412;-1.328;2023-03-14T01:17:42;5.90;99.90
22364;DHT22;11349;53.412;-1.328;2023-03-14T01:20:10;5.80;99.90
22364;DHT22;11349;53.412;-1.328;2023-03-14T01:22:36;5.70;99.90
22364;DHT22;11349;53.412;-1.328;2023-03-14T01:25:04;5.70;99.90
22364;DHT22;11349;53.412;-1.328;2023-03-14T01:27:30;5.50;99.90
22364;DHT22;11349;53.412;-1.328;2023-03-14T01:29:56;5.30;99.90
22364;DHT22;11349;53.412;-1.328;2023-03-14T01:32:21;5.30;99.90
22364;DHT22;11349;53.412;-1.328;2023-03-14T01:34:47;5.30;99.90
22364;DHT22;11349;53.412;-1.328;2023-03-14T01:37:13;5.40;99.90
22364;DHT22;11349;53.412;-1.328;2023-03-14T01:39:38;5.40;99.90
22364;DHT22;11349;53.412;-1.328;2023-03-14T01:42:04;5.30;99.90
22364;DHT22;11349;53.412;-1.328;2023-03-14T01:44:55;5.30;99.90
22364;DHT22;11349;53.412;-1.328;2023-03-14T01:47:22;5.30;99.90
22364;DHT22;11349;53.412;-1.328;2023-03-14T01:50:15;5.10;99.90
22364;DHT22;11349;53.412;-1.328;2023-03-14T01:52:43;5.00;99.90
22364;DHT22;11349;53.412;-1.328;2023-03-14T01:55:14;5.20;99.90
22364;DHT22;11349;53.412;-1.328;2023-03-14T01:57:47;5.20;99.90
22364;DHT22;11349;53.412;-1.328;2023-03-14T02:00:20;5.10;99.90
22364;DHT22;11349;53.412;-1.328;2023-03-14T02:02:50;5.20;99.90
22364;DHT22;11349;53.412;-1.328;2023-03-14T02:05:26;4.90;99.90
22364;DHT22;11349;53.412;-1.328;2023-03-14T02:07:55;5.00;99.90
22364;DHT22;11349;53.412;-1.328;2023-03-14T02:10:24;5.00;99.90
22364;DHT22;11349;53.412;-1.328;2023-03-14T02:12:52;4.90;99.90
22364;DHT22;11349;53.412;-1.328;2023-03-14T02:15:21;5.00;99.90
22364;DHT22;11349;53.412;-1.328;2023-03-14T02:17:47;4.90;99.90
22364;DHT22;11349;53.412;-1.328;2023-03-14T02:23:01;5.00;99.90
22364;DHT22;11349;53.412;-1.328;2023-03-14T02:25:47;4.80;99.90
22364;DHT22;11349;53.412;-1.328;2023-03-14T02:28:14;4.90;99.90
22364;DHT22;11349;53.412;-1.328;2023-03-14T02:30:40;4.90;99.90
22364;DHT22;11349;53.412;-1.328;2023-03-14T02:33:08;4.90;99.90
22364;DHT22;11349;53.412;-1.328;2023-03-14T02:35:40;4.90;99.90
22364;DHT22;11349;53.412;-1.328;2023-03-14T02:38:21;4.80;99.90
22364;DHT22;11349;53.412;-1.328;2023-03-14T02:40:48;4.70;99.90
22364;DHT22;11349;53.412;-1.328;2023-03-14T02:43:14;4.70;99.90
22364;DHT22;11349;53.412;-1.328;2023-03-14T02:48:12;4.80;99.90
22364;DHT22;11349;53.412;-1.328;2023-03-14T02:50:39;4.80;99.90
22364;DHT22;11349;53.412;-1.328;2023-03-14T02:53:05;4.70;99.90
22364;DHT22;11349;53.412;-1.328;2023-03-14T02:55:31;4.70;99.90
22364;DHT22;11349;53.412;-1.328;2023-03-14T02:57:56;4.60;99.90
22364;DHT22;11349;53.412;-1.328;2023-03-14T03:00:22;4.60;99.90
22364;DHT22;11349;53.412;-1.328;2023-03-14T03:02:48;4.60;99.90
22364;DHT22;11349;53.412;-1.328;2023-03-14T03:05:14;4.50;99.90
22364;DHT22;11349;53.412;-1.328;2023-03-14T03:07:40;4.50;99.90
22364;DHT22;11349;53.412;-1.328;2023-03-14T03:10:06;4.50;99.90
22364;DHT22;11349;53.412;-1.328;2023-03-14T03:12:32;4.60;99.90
22364;DHT22;11349;53.412;-1.328;2023-03-14T03:14:58;4.50;99.90
22364;DHT22;11349;53.412;-1.328;2023-03-14T03:17:23;4.50;99.90
22364;DHT22;11349;53.412;-1.328;2023-03-14T03:19:49;4.60;99.90
22364;DHT22;11349;53.412;-1.328;2023-03-14T03:22:15;4.50;99.90
22364;DHT22;11349;53.412;-1.328;2023-03-14T03:24:41;4.40;99.90
22364;DHT22;11349;53.412;-1.328;2023-03-14T03:27:06;4.50;99.90
22364;DHT22;11349;53.412;-1.328;2023-03-14T03:29:32;4.40;99.90
22364;DHT22;11349;53.412;-1.328;2023-03-14T03:31:58;4.40;99.90
22364;DHT22;11349;53.412;-1.328;2023-03-14T03:34:23;4.40;99.90
22364;DHT22;11349;53.412;-1.328;2023-03-14T03:36:49;4.20;99.90
22364;DHT22;11349;53.412;-1.328;2023-03-14T03:39:15;4.20;99.90
22364;DHT22;11349;53.412;-1.328;2023-03-14T03:41:40;4.20;99.90
22364;DHT22;11349;53.412;-1.328;2023-03-14T03:44:06;4.30;99.90
22364;DHT22;11349;53.412;-1.328;2023-03-14T03:46:32;4.20;99.90
22364;DHT22;11349;53.412;-1.328;2023-03-14T03:48:59;4.30;99.90
22364;DHT22;11349;53.412;-1.328;2023-03-14T03:51:26;4.20;99.90
22364;DHT22;11349;53.412;-1.328;2023-03-14T03:53:52;4.20;99.90
22364;DHT22;11349;53.412;-1.328;2023-03-14T03:56:17;4.20;99.90
22364;DHT22;11349;53.412;-1.328;2023-03-14T03:58:43;4.20;99.90
22364;DHT22;11349;53.412;-1.328;2023-03-14T04:01:10;4.20;99.90
22364;DHT22;11349;53.412;-1.328;2023-03-14T04:03:38;4.20;99.90
22364;DHT22;11349;53.412;-1.328;2023-03-14T04:06:07;4.10;99.90
22364;DHT22;11349;53.412;-1.328;2023-03-14T04:08:33;4.10;99.90
22364;DHT22;11349;53.412;-1.328;2023-03-14T04:11:00;4.10;99.90
22364;DHT22;11349;53.412;-1.328;2023-03-14T04:13:26;4.20;99.90
22364;DHT22;11349;53.412;-1.328;2023-03-14T04:15:52;4.20;99.90
22364;DHT22;11349;53.412;-1.328;2023-03-14T04:18:18;4.30;99.90
22364;DHT22;11349;53.412;-1.328;2023-03-14T04:20:44;4.30;99.90
22364;DHT22;11349;53.412;-1.328;2023-03-14T04:23:10;4.20;99.90
22364;DHT22;11349;53.412;-1.328;2023-03-14T04:25:36;4.20;99.90
22364;DHT22;11349;53.412;-1.328;2023-03-14T04:28:02;4.20;99.90
22364;DHT22;11349;53.412;-1.328;2023-03-14T04:30:29;4.10;99.90
22364;DHT22;11349;53.412;-1.328;2023-03-14T04:32:55;4.10;99.90
22364;DHT22;11349;53.412;-1.328;2023-03-14T04:35:20;3.90;99.90
22364;DHT22;11349;53.412;-1.328;2023-03-14T04:37:46;3.90;99.90
22364;DHT22;11349;53.412;-1.328;2023-03-14T04:40:15;4.00;99.90
22364;DHT22;11349;53.412;-1.328;2023-03-14T04:42:40;4.00;99.90
22364;DHT22;11349;53.412;-1.328;2023-03-14T04:45:07;3.90;99.90
22364;DHT22;11349;53.412;-1.328;2023-03-14T04:47:33;3.90;99.90
22364;DHT22;11349;53.412;-1.328;2023-03-14T04:49:59;3.90;99.90
22364;DHT22;11349;53.412;-1.328;2023-03-14T04:52:25;4.00;99.90
22364;DHT22;11349;53.412;-1.328;2023-03-14T04:54:51;3.90;99.90
22364;DHT22;11349;53.412;-1.328;2023-03-14T04:57:17;3.70;99.90
22364;DHT22;11349;53.412;-1.328;2023-03-14T04:59:43;3.80;99.90
22364;DHT22;11349;53.412;-1.328;2023-03-14T05:02:09;3.80;99.90
22364;DHT22;11349;53.412;-1.328;2023-03-14T05:04:34;3.80;99.90
22364;DHT22;11349;53.412;-1.328;2023-03-14T05:07:00;3.80;99.90
22364;DHT22;11349;53.412;-1.328;2023-03-14T05:09:26;3.80;99.90
22364;DHT22;11349;53.412;-1.328;2023-03-14T05:11:52;3.80;99.90
22364;DHT22;11349;53.412;-1.328;2023-03-14T05:14:17;3.80;99.90
22364;DHT22;11349;53.412;-1.328;2023-03-14T05:16:43;3.80;99.90
22364;DHT22;11349;53.412;-1.328;2023-03-14T05:19:10;3.80;99.90
22364;DHT22;11349;53.412;-1.328;2023-03-14T05:21:36;3.70;99.90
22364;DHT22;11349;53.412;-1.328;2023-03-14T05:24:02;3.70;99.90
22364;DHT22;11349;53.412;-1.328;2023-03-14T05:26:28;3.70;99.90
22364;DHT22;11349;53.412;-1.328;2023-03-14T05:28:54;3.70;99.90
22364;DHT22;11349;53.412;-1.328;2023-03-14T05:31:23;3.70;99.90
22364;DHT22;11349;53.412;-1.328;2023-03-14T05:33:48;3.70;99.90
22364;DHT22;11349;53.412;-1.328;2023-03-14T05:36:14;3.60;99.90
22364;DHT22;11349;53.412;-1.328;2023-03-14T05:38:40;3.50;99.90
22364;DHT22;11349;53.412;-1.328;2023-03-14T05:41:06;3.40;99.90
22364;DHT22;11349;53.412;-1.328;2023-03-14T05:43:31;3.50;99.90
22364;DHT22;11349;53.412;-1.328;2023-03-14T05:45:57;3.60;99.90
22364;DHT22;11349;53.412;-1.328;2023-03-14T05:48:23;3.50;99.90
22364;DHT22;11349;53.412;-1.328;2023-03-14T05:50:54;3.50;99.90
22364;DHT22;11349;53.412;-1.328;2023-03-14T05:53:20;3.50;99.90
22364;DHT22;11349;53.412;-1.328;2023-03-14T05:55:53;3.50;99.90
22364;DHT22;11349;53.412;-1.328;2023-03-14T05:58:19;3.50;99.90
22364;DHT22;11349;53.412;-1.328;2023-03-14T06:00:45;3.50;99.90
22364;DHT22;11349;53.412;-1.328;2023-03-14T06:03:10;3.50;99.90
22364;DHT22;11349;53.412;-1.328;2023-03-14T06:05:36;3.50;99.90
22364;DHT22;11349;53.412;-1.328;2023-03-14T06:08:02;3.40;99.90
22364;DHT22;11349;53.412;-1.328;2023-03-14T06:10:28;3.40;99.90
22364;DHT22;11349;53.412;-1.328;2023-03-14T06:12:56;3.40;99.90
22364;DHT22;11349;53.412;-1.328;2023-03-14T06:15:22;3.40;99.90
22364;DHT22;11349;53.412;-1.328;2023-03-14T06:17:47;3.40;99.90
22364;DHT22;11349;53.412;-1.328;2023-03-14T06:20:13;3.40;99.90
22364;DHT22;11349;53.412;-1.328;2023-03-14T06:22:39;3.30;99.90
22364;DHT22;11349;53.412;-1.328;2023-03-14T06:25:06;3.30;99.90
22364;DHT22;11349;53.412;-1.328;2023-03-14T06:27:32;3.30;99.90
22364;DHT22;11349;53.412;-1.328;2023-03-14T06:29:58;3.30;99.90
22364;DHT22;11349;53.412;-1.328;2023-03-14T06:32:24;3.30;99.90
22364;DHT22;11349;53.412;-1.328;2023-03-14T06:34:50;3.30;99.90
22364;DHT22;11349;53.412;-1.328;2023-03-14T06:37:16;3.30;99.90
22364;DHT22;11349;53.412;-1.328;2023-03-14T06:39:41;3.30;99.90
22364;DHT22;11349;53.412;-1.328;2023-03-14T06:42:09;3.30;99.90
22364;DHT22;11349;53.412;-1.328;2023-03-14T06:44:35;3.20;99.90
22364;DHT22;11349;53.412;-1.328;2023-03-14T06:47:00;3.20;99.90
22364;DHT22;11349;53.412;-1.328;2023-03-14T06:49:26;3.20;99.90
22364;DHT22;11349;53.412;-1.328;2023-03-14T06:51:52;3.20;99.90
22364;DHT22;11349;53.412;-1.328;2023-03-14T06:54:17;3.10;99.90
22364;DHT22;11349;53.412;-1.328;2023-03-14T06:56:43;3.10;99.90
22364;DHT22;11349;53.412;-1.328;2023-03-14T06:59:09;3.10;99.90
22364;DHT22;11349;53.412;-1.328;2023-03-14T07:01:35;3.10;99.90
22364;DHT22;11349;53.412;-1.328;2023-03-14T07:04:01;3.10;99.90
22364;DHT22;11349;53.412;-1.328;2023-03-14T07:06:27;3.20;99.90
22364;DHT22;11349;53.412;-1.328;2023-03-14T07:08:55;3.10;99.90
22364;DHT22;11349;53.412;-1.328;2023-03-14T07:11:20;3.20;99.90
22364;DHT22;11349;53.412;-1.328;2023-03-14T07:13:46;3.10;99.90
22364;DHT22;11349;53.412;-1.328;2023-03-14T07:16:12;3.10;99.90
22364;DHT22;11349;53.412;-1.328;2023-03-14T07:18:38;3.10;99.90
22364;DHT22;11349;53.412;-1.328;2023-03-14T07:21:05;3.20;99.90
22364;DHT22;11349;53.412;-1.328;2023-03-14T07:23:31;3.40;99.90
22364;DHT22;11349;53.412;-1.328;2023-03-14T07:25:57;3.70;99.90
22364;DHT22;11349;53.412;-1.328;2023-03-14T07:28:23;4.10;99.90
22364;DHT22;11349;53.412;-1.328;2023-03-14T07:30:49;4.20;99.90
22364;DHT22;11349;53.412;-1.328;2023-03-14T07:33:15;4.40;99.90
22364;DHT22;11349;53.412;-1.328;2023-03-14T07:35:40;4.60;99.90
22364;DHT22;11349;53.412;-1.328;2023-03-14T07:38:06;5.00;99.90
22364;DHT22;11349;53.412;-1.328;2023-03-14T07:40:32;5.40;99.90
22364;DHT22;11349;53.412;-1.328;2023-03-14T07:42:57;5.70;99.90
22364;DHT22;11349;53.412;-1.328;2023-03-14T07:45:23;6.00;99.90
22364;DHT22;11349;53.412;-1.328;2023-03-14T07:47:49;6.50;99.90
22364;DHT22;11349;53.412;-1.328;2023-03-14T07:50:15;6.90;99.90
22364;DHT22;11349;53.412;-1.328;2023-03-14T07:52:41;7.10;99.90
22364;DHT22;11349;53.412;-1.328;2023-03-14T07:55:07;7.30;99.90
22364;DHT22;11349;53.412;-1.328;2023-03-14T07:57:33;7.60;99.90
22364;DHT22;11349;53.412;-1.328;2023-03-14T07:59:59;7.80;99.90
22364;DHT22;11349;53.412;-1.328;2023-03-14T08:02:24;8.00;99.90
22364;DHT22;11349;53.412;-1.328;2023-03-14T08:04:50;8.00;99.90
22364;DHT22;11349;53.412;-1.328;2023-03-14T08:07:16;8.10;99.90
22364;DHT22;11349;53.412;-1.328;2023-03-14T08:09:42;8.30;99.90
22364;DHT22;11349;53.412;-1.328;2023-03-14T08:12:08;8.40;99.90
22364;DHT22;11349;53.412;-1.328;2023-03-14T08:14:34;8.60;99.90
22364;DHT22;11349;53.412;-1.328;2023-03-14T08:16:59;8.60;99.90
22364;DHT22;11349;53.412;-1.328;2023-03-14T08:19:28;8.90;99.90
22364;DHT22;11349;53.412;-1.328;2023-03-14T08:21:53;9.00;99.90
22364;DHT22;11349;53.412;-1.328;2023-03-14T08:24:19;9.20;99.90
22364;DHT22;11349;53.412;-1.328;2023-03-14T08:26:45;9.10;99.90
22364;DHT22;11349;53.412;-1.328;2023-03-14T08:29:11;9.40;99.90
22364;DHT22;11349;53.412;-1.328;2023-03-14T08:31:39;9.80;99.90
22364;DHT22;11349;53.412;-1.328;2023-03-14T08:34:05;9.50;99.90
22364;DHT22;11349;53.412;-1.328;2023-03-14T08:36:32;9.60;99.90
22364;DHT22;11349;53.412;-1.328;2023-03-14T08:38:57;9.70;99.90
22364;DHT22;11349;53.412;-1.328;2023-03-14T08:41:23;9.90;99.90
22364;DHT22;11349;53.412;-1.328;2023-03-14T08:43:49;9.70;99.90
22364;DHT22;11349;53.412;-1.328;2023-03-14T08:46:15;9.60;99.90
22364;DHT22;11349;53.412;-1.328;2023-03-14T08:48:40;9.80;99.90
22364;DHT22;11349;53.412;-1.328;2023-03-14T08:51:07;9.80;99.90
22364;DHT22;11349;53.412;-1.328;2023-03-14T08:53:33;9.80;99.90
22364;DHT22;11349;53.412;-1.328;2023-03-14T08:55:59;9.60;99.90
22364;DHT22;11349;53.412;-1.328;2023-03-14T08:58:24;9.70;99.90
22364;DHT22;11349;53.412;-1.328;2023-03-14T09:00:50;9.70;99.90
22364;DHT22;11349;53.412;-1.328;2023-03-14T09:03:16;9.70;99.90
22364;DHT22;11349;53.412;-1.328;2023-03-14T09:05:42;9.80;99.90
22364;DHT22;11349;53.412;-1.328;2023-03-14T09:08:08;9.90;99.90
22364;DHT22;11349;53.412;-1.328;2023-03-14T09:10:33;10.00;99.90
22364;DHT22;11349;53.412;-1.328;2023-03-14T09:12:59;9.90;99.90
22364;DHT22;11349;53.412;-1.328;2023-03-14T09:15:25;10.10;99.90
22364;DHT22;11349;53.412;-1.328;2023-03-14T09:17:51;10.20;99.90
22364;DHT22;11349;53.412;-1.328;2023-03-14T09:20:17;10.20;99.90
22364;DHT22;11349;53.412;-1.328;2023-03-14T09:22:42;10.00;99.90
22364;DHT22;11349;53.412;-1.328;2023-03-14T09:25:09;10.30;99.90
22364;DHT22;11349;53.412;-1.328;2023-03-14T09:27:35;10.00;99.90
22364;DHT22;11349;53.412;-1.328;2023-03-14T09:30:01;10.20;99.70
22364;DHT22;11349;53.412;-1.328;2023-03-14T09:32:27;10.00;99.90
22364;DHT22;11349;53.412;-1.328;2023-03-14T09:34:53;9.90;99.90
22364;DHT22;11349;53.412;-1.328;2023-03-14T09:37:18;10.00;99.90
22364;DHT22;11349;53.412;-1.328;2023-03-14T09:39:45;10.00;99.90
22364;DHT22;11349;53.412;-1.328;2023-03-14T09:42:15;10.00;99.90
22364;DHT22;11349;53.412;-1.328;2023-03-14T09:45:03;9.70;99.90
22364;DHT22;11349;53.412;-1.328;2023-03-14T09:47:33;9.90;99.90
22364;DHT22;11349;53.412;-1.328;2023-03-14T09:50:00;9.80;99.90
22364;DHT22;11349;53.412;-1.328;2023-03-14T09:52:35;10.70;99.90
22364;DHT22;11349;53.412;-1.328;2023-03-14T09:55:10;10.40;99.90
22364;DHT22;11349;53.412;-1.328;2023-03-14T09:57:37;10.20;99.90
22364;DHT22;11349;53.412;-1.328;2023-03-14T10:00:12;10.30;99.90
22364;DHT22;11349;53.412;-1.328;2023-03-14T10:02:41;10.00;99.90
22364;DHT22;11349;53.412;-1.328;2023-03-14T10:05:15;9.80;99.90
22364;DHT22;11349;53.412;-1.328;2023-03-14T10:07:41;9.90;99.90
22364;DHT22;11349;53.412;-1.328;2023-03-14T10:10:21;9.50;99.90
22364;DHT22;11349;53.412;-1.328;2023-03-14T10:12:58;10.00;99.90
22364;DHT22;11349;53.412;-1.328;2023-03-14T10:15:34;9.60;96.50
22364;DHT22;11349;53.412;-1.328;2023-03-14T10:18:02;9.70;99.90
22364;DHT22;11349;53.412;-1.328;2023-03-14T10:22:58;10.10;99.90
22364;DHT22;11349;53.412;-1.328;2023-03-14T10:25:29;10.00;99.90
22364;DHT22;11349;53.412;-1.328;2023-03-14T10:27:55;9.90;95.80
22364;DHT22;11349;53.412;-1.328;2023-03-14T10:30:43;9.70;85.60
22364;DHT22;11349;53.412;-1.328;2023-03-14T10:33:30;9.70;93.10
22364;DHT22;11349;53.412;-1.328;2023-03-14T10:38:26;9.50;91.20
22364;DHT22;11349;53.412;-1.328;2023-03-14T10:40:53;9.60;99.10
22364;DHT22;11349;53.412;-1.328;2023-03-14T10:43:27;9.50;91.70
22364;DHT22;11349;53.412;-1.328;2023-03-14T10:46:05;9.20;92.50
22364;DHT22;11349;53.412;-1.328;2023-03-14T10:48:38;9.30;89.50
22364;DHT22;11349;53.412;-1.328;2023-03-14T10:51:18;9.00;91.20
22364;DHT22;11349;53.412;-1.328;2023-03-14T10:53:59;8.80;92.00
22364;DHT22;11349;53.412;-1.328;2023-03-14T10:56:27;8.80;95.20
22364;DHT22;11349;53.412;-1.328;2023-03-14T10:58:56;8.90;93.80
22364;DHT22;11349;53.412;-1.328;2023-03-14T11:01:39;8.90;94.50
22364;DHT22;11349;53.412;-1.328;2023-03-14T11:20:51;8.50;99.90
22364;DHT22;11349;53.412;-1.328;2023-03-14T11:23:23;8.40;99.80
22364;DHT22;11349;53.412;-1.328;2023-03-14T11:31:33;8.40;99.90
22364;DHT22;11349;53.412;-1.328;2023-03-14T11:34:29;8.20;99.90
22364;DHT22;11349;53.412;-1.328;2023-03-14T11:39:44;7.60;99.90
22364;DHT22;11349;53.412;-1.328;2023-03-14T11:42:16;8.20;99.90
22364;DHT22;11349;53.412;-1.328;2023-03-14T11:44:45;8.20;99.90
22364;DHT22;11349;53.412;-1.328;2023-03-14T11:47:13;8.00;99.90
22364;DHT22;11349;53.412;-1.328;2023-03-14T11:49:48;7.80;99.90
22364;DHT22;11349;53.412;-1.328;2023-03-14T11:52:16;7.50;99.90
22364;DHT22;11349;53.412;-1.328;2023-03-14T11:54:53;7.70;99.90
22364;DHT22;11349;53.412;-1.328;2023-03-14T11:57:21;7.60;99.90
22364;DHT22;11349;53.412;-1.328;2023-03-14T12:13:41;7.10;99.90
22364;DHT22;11349;53.412;-1.328;2023-03-14T12:16:30;7.00;99.90
22364;DHT22;11349;53.412;-1.328;2023-03-14T12:18:56;7.10;99.90
22364;DHT22;11349;53.412;-1.328;2023-03-14T12:21:22;7.00;99.90
22364;DHT22;11349;53.412;-1.328;2023-03-14T12:23:57;6.80;99.90
22364;DHT22;11349;53.412;-1.328;2023-03-14T12:26:27;7.00;99.90
22364;DHT22;11349;53.412;-1.328;2023-03-14T12:42:12;8.70;99.90
22364;DHT22;11349;53.412;-1.328;2023-03-14T12:49:50;8.40;99.90
22364;DHT22;11349;53.412;-1.328;2023-03-14T12:52:21;8.50;99.90
22364;DHT22;11349;53.412;-1.328;2023-03-14T13:00:23;8.40;99.90
22364;DHT22;11349;53.412;-1.328;2023-03-14T13:03:11;8.50;99.90
22364;DHT22;11349;53.412;-1.328;2023-03-14T13:05:55;8.90;99.90
22364;DHT22;11349;53.412;-1.328;2023-03-14T13:08:43;8.80;99.90
22364;DHT22;11349;53.412;-1.328;2023-03-14T13:11:20;9.00;99.90
22364;DHT22;11349;53.412;-1.328;2023-03-14T13:13:49;9.70;99.90
22364;DHT22;11349;53.412;-1.328;2023-03-14T13:16:20;9.40;99.90
22364;DHT22;11349;53.412;-1.328;2023-03-14T13:18:48;9.20;99.90
22364;DHT22;11349;53.412;-1.328;2023-03-14T13:21:19;9.20;99.90
22364;DHT22;11349;53.412;-1.328;2023-03-14T13:26:20;9.80;99.90
22364;DHT22;11349;53.412;-1.328;2023-03-14T13:28:46;9.60;99.90
22364;DHT22;11349;53.412;-1.328;2023-03-14T13:31:23;9.60;99.90
22364;DHT22;11349;53.412;-1.328;2023-03-14T13:34:04;9.50;99.90
22364;DHT22;11349;53.412;-1.328;2023-03-14T13:36:30;10.20;99.90
22364;DHT22;11349;53.412;-1.328;2023-03-14T13:39:04;10.60;99.90
22364;DHT22;11349;53.412;-1.328;2023-03-14T13:41:32;10.60;99.90
22364;DHT22;11349;53.412;-1.328;2023-03-14T13:44:05;10.40;99.90
22364;DHT22;11349;53.412;-1.328;2023-03-14T13:46:34;10.10;99.90
22364;DHT22;11349;53.412;-1.328;2023-03-14T13:49:09;9.90;99.90
22364;DHT22;11349;53.412;-1.328;2023-03-14T13:51:38;9.70;99.90
22364;DHT22;11349;53.412;-1.328;2023-03-14T13:54:16;9.70;99.90
22364;DHT22;11349;53.412;-1.328;2023-03-14T13:56:42;9.80;99.90
22364;DHT22;11349;53.412;-1.328;2023-03-14T13:59:24;9.20;99.90
22364;DHT22;11349;53.412;-1.328;2023-03-14T14:01:51;8.90;99.90
22364;DHT22;11349;53.412;-1.328;2023-03-14T14:04:19;8.60;99.90
22364;DHT22;11349;53.412;-1.328;2023-03-14T14:06:53;8.40;99.90
22364;DHT22;11349;53.412;-1.328;2023-03-14T14:09:24;8.40;99.90
22364;DHT22;11349;53.412;-1.328;2023-03-14T14:14:22;8.40;99.90
22364;DHT22;11349;53.412;-1.328;2023-03-14T14:16:51;8.50;99.90
22364;DHT22;11349;53.412;-1.328;2023-03-14T14:19:18;8.40;99.90
22364;DHT22;11349;53.412;-1.328;2023-03-14T14:21:45;8.40;99.90
22364;DHT22;11349;53.412;-1.328;2023-03-14T14:24:13;8.40;99.90
22364;DHT22;11349;53.412;-1.328;2023-03-14T14:27:01;8.30;1.00
22364;DHT22;11349;53.412;-1.328;2023-03-14T14:29:33;8.10;99.90
22364;DHT22;11349;53.412;-1.328;2023-03-14T14:32:19;8.50;99.90
22364;DHT22;11349;53.412;-1.328;2023-03-14T14:34:48;8.30;89.70
22364;DHT22;11349;53.412;-1.328;2023-03-14T14:39:47;7.90;99.90
22364;DHT22;11349;53.412;-1.328;2023-03-14T14:42:18;7.60;99.90
22364;DHT22;11349;53.412;-1.328;2023-03-14T14:44:48;7.30;99.90
22364;DHT22;11349;53.412;-1.328;2023-03-14T14:47:19;7.20;99.90
22364;DHT22;11349;53.412;-1.328;2023-03-14T14:49:47;7.20;99.90
22364;DHT22;11349;53.412;-1.328;2023-03-14T14:52:19;7.10;99.90
22364;DHT22;11349;53.412;-1.328;2023-03-14T14:54:52;7.00;99.90
22364;DHT22;11349;53.412;-1.328;2023-03-14T14:57:41;7.00;99.90
22364;DHT22;11349;53.412;-1.328;2023-03-14T15:00:21;7.20;99.90
22364;DHT22;11349;53.412;-1.328;2023-03-14T15:02:50;6.90;99.90
22364;DHT22;11349;53.412;-1.328;2023-03-14T15:05:26;7.10;99.90
22364;DHT22;11349;53.412;-1.328;2023-03-14T15:07:52;8.00;99.90
22364;DHT22;11349;53.412;-1.328;2023-03-14T15:10:21;7.50;99.90
22364;DHT22;11349;53.412;-1.328;2023-03-14T15:12:48;7.10;99.90
22364;DHT22;11349;53.412;-1.328;2023-03-14T15:15:15;7.00;99.90
22364;DHT22;11349;53.412;-1.328;2023-03-14T15:17:41;7.10;99.90
22364;DHT22;11349;53.412;-1.328;2023-03-14T15:20:12;7.30;99.90
22364;DHT22;11349;53.412;-1.328;2023-03-14T15:22:41;7.10;99.90
22364;DHT22;11349;53.412;-1.328;2023-03-14T15:25:08;7.10;99.90
22364;DHT22;11349;53.412;-1.328;2023-03-14T15:27:36;6.60;99.90
22364;DHT22;11349;53.412;-1.328;2023-03-14T15:30:02;6.60;99.90
22364;DHT22;11349;53.412;-1.328;2023-03-14T15:32:28;6.40;99.90
22364;DHT22;11349;53.412;-1.328;2023-03-14T15:34:57;7.00;99.90
22364;DHT22;11349;53.412;-1.328;2023-03-14T15:37:22;6.60;99.90
22364;DHT22;11349;53.412;-1.328;2023-03-14T15:39:49;6.80;99.90
22364;DHT22;11349;53.412;-1.328;2023-03-14T15:42:15;6.40;99.90
22364;DHT22;11349;53.412;-1.328;2023-03-14T15:44:40;6.20;99.90
22364;DHT22;11349;53.412;-1.328;2023-03-14T15:47:06;6.10;99.90
22364;DHT22;11349;53.412;-1.328;2023-03-14T15:49:33;6.20;99.90
22364;DHT22;11349;53.412;-1.328;2023-03-14T15:52:00;6.40;99.90
22364;DHT22;11349;53.412;-1.328;2023-03-14T15:54:25;6.70;99.90
22364;DHT22;11349;53.412;-1.328;2023-03-14T15:56:57;6.40;99.90
22364;DHT22;11349;53.412;-1.328;2023-03-14T15:59:23;6.70;99.90
22364;DHT22;11349;53.412;-1.328;2023-03-14T16:01:49;6.90;99.90
22364;DHT22;11349;53.412;-1.328;2023-03-14T16:04:15;6.60;99.90
22364;DHT22;11349;53.412;-1.328;2023-03-14T16:06:41;6.30;99.90
22364;DHT22;11349;53.412;-1.328;2023-03-14T16:09:12;6.30;99.90
22364;DHT22;11349;53.412;-1.328;2023-03-14T16:11:38;6.30;99.90
22364;DHT22;11349;53.412;-1.328;2023-03-14T16:14:04;6.30;99.90
22364;DHT22;11349;53.412;-1.328;2023-03-14T16:16:30;6.20;99.90
22364;DHT22;11349;53.412;-1.328;2023-03-14T16:18:55;6.30;99.90
22364;DHT22;11349;53.412;-1.328;2023-03-14T16:21:22;6.30;99.90
22364;DHT22;11349;53.412;-1.328;2023-03-14T16:23:48;6.50;99.90
22364;DHT22;11349;53.412;-1.328;2023-03-14T16:26:16;6.30;99.90
22364;DHT22;11349;53.412;-1.328;2023-03-14T16:28:44;6.30;99.90
22364;DHT22;11349;53.412;-1.328;2023-03-14T16:31:12;6.40;99.90
22364;DHT22;11349;53.412;-1.328;2023-03-14T16:33:40;6.30;99.90
22364;DHT22;11349;53.412;-1.328;2023-03-14T16:36:07;5.80;99.90
22364;DHT22;11349;53.412;-1.328;2023-03-14T16:38:36;5.70;99.90
22364;DHT22;11349;53.412;-1.328;2023-03-14T16:41:15;5.90;99.90
22364;DHT22;11349;53.412;-1.328;2023-03-14T16:43:42;5.80;99.90
22364;DHT22;11349;53.412;-1.328;2023-03-14T16:46:13;5.70;99.90
22364;DHT22;11349;53.412;-1.328;2023-03-14T16:48:41;5.70;99.90
22364;DHT22;11349;53.412;-1.328;2023-03-14T16:51:07;5.70;99.90
22364;DHT22;11349;53.412;-1.328;2023-03-14T16:53:34;5.70;99.90
22364;DHT22;11349;53.412;-1.328;2023-03-14T16:55:59;5.70;99.90
22364;DHT22;11349;53.412;-1.328;2023-03-14T16:58:25;5.60;99.90